createdAt,value
2022-08-05T00:03:18.865Z,3.90
2022-08-05T00:07:01.556Z,3.90
2022-08-05T00:11:28.007Z,4.10
2022-08-05T00:15:54.470Z,3.88
2022-08-05T00:19:16.419Z,3.75
2022-08-05T00:23:12.797Z,4.30
2022-08-05T00:26:55.944Z,3.90
2022-08-05T00:30:41.194Z,4.40
2022-08-05T00:34:53.629Z,4.15
2022-08-05T00:38:33.787Z,4.20
2022-08-05T00:42:31.580Z,3.88
2022-08-05T00:46:16.542Z,4.00
2022-08-05T00:49:59.478Z,4.45
2022-08-05T00:54:00.466Z,4.40
2022-08-05T00:57:58.168Z,4.88
2022-08-05T01:01:48.733Z,4.55
2022-08-05T01:05:32.050Z,4.55
2022-08-05T01:09:19.821Z,4.20
2022-08-05T01:13:13.190Z,4.65
2022-08-05T01:17:07.187Z,4.30
2022-08-05T01:20:55.062Z,4.30
2022-08-05T01:24:48.843Z,4.78
2022-08-05T01:28:37.257Z,4.30
2022-08-05T01:32:24.791Z,4.78
2022-08-05T01:36:16.023Z,4.57
2022-08-05T01:39:59.877Z,4.85
2022-08-05T01:43:44.708Z,5.13
2022-08-05T01:47:39.631Z,4.30
2022-08-05T01:51:23.175Z,5.25
2022-08-05T01:55:08.690Z,4.97
2022-08-05T01:58:55.024Z,5.20
2022-08-05T02:02:46.453Z,4.97
2022-08-05T02:06:38.770Z,5.28
2022-08-05T02:10:28.362Z,5.13
2022-08-05T02:14:17.031Z,4.80
2022-08-05T02:18:33.210Z,4.97
2022-08-05T02:22:25.364Z,5.18
2022-08-05T02:26:11.887Z,4.72
2022-08-05T02:29:59.887Z,4.57
2022-08-05T02:33:48.412Z,5.10
2022-08-05T02:37:32.525Z,5.25
2022-08-05T02:41:17.873Z,5.10
2022-08-05T02:45:02.988Z,5.10
2022-08-05T02:48:49.102Z,4.63
2022-08-05T02:52:35.069Z,4.97
2022-08-05T02:56:18.980Z,5.10
2022-08-05T03:00:03.460Z,5.10
2022-08-05T03:04:02.733Z,4.70
2022-08-05T03:08:06.749Z,4.93
2022-08-05T03:12:08.907Z,4.50
2022-08-05T03:15:53.677Z,4.63
2022-08-05T03:19:38.728Z,5.32
2022-08-05T03:23:24.693Z,5.07
2022-08-05T03:27:07.639Z,5.00
2022-08-05T03:30:50.870Z,4.70
2022-08-05T03:34:35.460Z,4.55
2022-08-05T03:38:32.627Z,4.53
2022-08-05T03:42:16.210Z,4.90
2022-08-05T03:45:59.109Z,4.85
2022-08-05T03:49:52.136Z,4.70
2022-08-05T03:55:53.094Z,4.30
2022-08-05T03:57:43.008Z,4.00
2022-08-05T04:01:29.131Z,4.30
2022-08-05T04:05:17.365Z,4.45
2022-08-05T04:09:00.517Z,4.22
2022-08-05T04:16:32.296Z,4.13
2022-08-05T04:20:20.814Z,4.38
2022-08-05T04:24:09.028Z,4.22
2022-08-05T04:27:57.275Z,4.22
2022-08-05T04:31:41.002Z,4.68
2022-08-05T04:35:27.104Z,4.25
2022-08-05T04:39:33.524Z,4.10
2022-08-05T04:43:21.940Z,4.20
2022-08-05T04:47:09.154Z,3.90
2022-08-05T04:51:02.949Z,5.10
2022-08-05T04:54:52.863Z,4.38
2022-08-05T04:58:35.654Z,3.90
2022-08-05T05:02:36.894Z,3.80
2022-08-05T05:06:36.656Z,4.25
2022-08-05T05:10:24.923Z,4.30
2022-08-05T05:14:16.048Z,4.00
2022-08-05T05:17:59.216Z,3.97
2022-08-05T05:21:43.423Z,3.97
2022-08-05T05:25:33.047Z,3.78
2022-08-05T05:29:23.825Z,5.00
2022-08-05T05:33:24.049Z,3.55
2022-08-05T05:37:08.258Z,4.05
2022-08-05T05:40:51.868Z,3.70
2022-08-05T05:44:36.755Z,3.70
2022-08-05T05:48:20.605Z,3.45
2022-08-05T05:52:28.409Z,3.63
2022-08-05T05:56:14.134Z,3.60
2022-08-05T06:00:11.433Z,3.55
2022-08-05T06:04:02.056Z,3.45
2022-08-05T06:08:01.218Z,3.38
2022-08-05T06:11:58.969Z,3.60
2022-08-05T06:16:29.146Z,3.03
2022-08-05T06:19:45.673Z,3.78
2022-08-05T06:23:44.113Z,3.20
2022-08-05T06:28:09.142Z,3.47
2022-08-05T06:31:32.138Z,3.13
2022-08-05T06:36:02.906Z,3.30
2022-08-05T06:39:20.529Z,3.67
2022-08-05T06:43:04.687Z,3.33
2022-08-05T06:46:47.436Z,3.40
2022-08-05T06:50:33.749Z,3.10
2022-08-05T06:54:18.968Z,3.22
2022-08-05T06:58:29.593Z,3.45
2022-08-05T07:02:06.215Z,3.30
2022-08-05T07:05:48.998Z,3.35
2022-08-05T07:09:32.547Z,2.88
2022-08-05T07:13:59.720Z,3.70
2022-08-05T07:17:59.876Z,3.60
2022-08-05T07:21:45.807Z,3.10
2022-08-05T07:25:54.930Z,3.35
2022-08-05T07:30:30.128Z,3.67
2022-08-05T07:33:44.399Z,3.60
2022-08-05T07:37:36.009Z,3.58
2022-08-05T07:42:13.955Z,3.10
2022-08-05T07:45:56.516Z,3.40
2022-08-05T07:49:29.882Z,3.75
2022-08-05T07:53:13.314Z,3.70
2022-08-05T07:57:02.057Z,3.65
2022-08-05T08:00:59.277Z,3.80
2022-08-05T08:04:42.550Z,3.90
2022-08-05T08:08:27.680Z,3.70
2022-08-05T08:12:27.225Z,3.80
2022-08-05T08:16:35.578Z,4.05
2022-08-05T08:20:44.175Z,3.95
2022-08-05T08:24:21.485Z,4.05
2022-08-05T08:28:35.778Z,4.47
2022-08-05T08:32:27.903Z,4.43
2022-08-05T08:36:38.618Z,4.60
2022-08-05T08:40:13.960Z,4.65
2022-08-05T08:45:16.775Z,4.43
2022-08-05T08:48:12.670Z,4.53
2022-08-05T08:52:14.473Z,4.43
2022-08-05T08:56:04.713Z,4.25
2022-08-05T08:59:48.940Z,4.80
2022-08-05T09:03:40.483Z,4.30
2022-08-05T09:07:28.860Z,4.30
2022-08-05T09:11:13.966Z,4.68
2022-08-05T09:15:06.180Z,4.40
2022-08-05T09:18:50.709Z,4.32
2022-08-05T09:23:09.477Z,4.38
2022-08-05T09:26:53.644Z,4.45
2022-08-05T09:30:36.511Z,4.22
2022-08-05T09:34:23.106Z,4.70
2022-08-05T09:38:12.310Z,4.07
2022-08-05T09:42:01.873Z,3.80
2022-08-05T09:46:06.152Z,3.85
2022-08-05T09:50:00.799Z,3.78
2022-08-05T09:53:53.772Z,3.78
2022-08-05T09:57:39.970Z,3.88
2022-08-05T10:01:31.769Z,3.97
2022-08-05T10:05:18.128Z,4.20
2022-08-05T10:09:27.606Z,4.15
2022-08-05T10:13:11.485Z,3.92
2022-08-05T10:16:58.844Z,4.38
2022-08-05T10:20:47.712Z,4.00
2022-08-05T10:24:33.384Z,3.90
2022-08-05T10:28:29.656Z,3.70
2022-08-05T10:33:01.707Z,3.58
2022-08-05T10:36:18.181Z,3.50
2022-08-05T10:40:18.510Z,3.60
2022-08-05T10:44:06.370Z,3.78
2022-08-05T10:48:30.341Z,3.47
2022-08-05T10:52:00.324Z,3.45
2022-08-05T10:56:11.141Z,3.88
2022-08-05T11:00:18.631Z,3.75
2022-08-05T11:04:08.182Z,3.20
2022-08-05T11:08:21.672Z,3.30
2022-08-05T11:12:06.829Z,3.22
2022-08-05T11:16:47.853Z,3.60
2022-08-05T11:20:38.989Z,3.60
2022-08-05T11:24:29.969Z,3.42
2022-08-05T11:28:39.060Z,3.20
2022-08-05T11:32:27.630Z,3.20
2022-08-05T11:36:11.581Z,3.50
2022-08-05T11:40:02.912Z,3.10
2022-08-05T11:44:04.819Z,3.10
2022-08-05T11:47:50.580Z,2.97
2022-08-05T11:51:44.320Z,2.97
2022-08-05T11:55:36.467Z,3.28
2022-08-05T11:59:21.447Z,2.85
2022-08-05T12:03:28.610Z,2.80
2022-08-05T12:07:14.239Z,2.90
2022-08-05T12:11:00.374Z,3.40
2022-08-05T12:14:48.578Z,2.80
2022-08-05T12:18:34.808Z,2.88
2022-08-05T12:22:23.728Z,2.80
2022-08-05T12:26:07.984Z,3.15
2022-08-05T12:30:03.300Z,3.40
2022-08-05T12:33:46.584Z,3.63
2022-08-05T12:37:29.867Z,3.10
2022-08-05T12:41:16.123Z,2.70
2022-08-05T12:45:09.407Z,3.00
2022-08-05T12:49:05.697Z,2.95
2022-08-05T12:52:59.427Z,2.90
2022-08-05T12:56:45.155Z,2.97
2022-08-05T13:01:59.859Z,3.00
2022-08-05T13:04:34.346Z,2.95
2022-08-05T13:08:26.992Z,3.38
2022-08-05T13:12:16.214Z,3.15
2022-08-05T13:16:00.035Z,2.70
2022-08-05T13:19:52.196Z,3.28
2022-08-05T13:23:35.741Z,2.80
2022-08-05T13:27:37.489Z,3.40
2022-08-05T13:32:03.486Z,3.42
2022-08-05T13:35:43.118Z,2.97
2022-08-05T13:40:15.774Z,3.20
2022-08-05T13:43:45.098Z,2.97
2022-08-05T13:48:08.463Z,2.95
2022-08-05T13:51:41.659Z,2.90
2022-08-05T13:55:41.247Z,3.08
2022-08-05T13:59:27.304Z,2.67
2022-08-05T14:03:10.921Z,2.95
2022-08-05T14:07:11.905Z,2.70
2022-08-05T14:10:59.728Z,2.63
2022-08-05T14:14:53.552Z,2.55
2022-08-05T14:18:36.291Z,3.50
2022-08-05T14:22:21.477Z,3.20
2022-08-05T14:26:04.907Z,2.90
2022-08-05T14:29:51.360Z,3.20
2022-08-05T14:33:59.755Z,3.00
2022-08-05T14:37:48.185Z,2.63
2022-08-05T14:41:32.779Z,2.65
2022-08-05T14:45:15.504Z,3.20
2022-08-05T14:49:06.225Z,9.70
2022-08-05T14:52:53.396Z,2.50
2022-08-05T14:56:44.202Z,2.97
2022-08-05T15:00:29.574Z,2.97
2022-08-05T15:04:13.710Z,2.83
2022-08-05T15:08:05.719Z,3.00
2022-08-05T15:11:55.422Z,2.80
2022-08-05T15:15:55.542Z,3.00
2022-08-05T15:19:40.534Z,2.88
2022-08-05T15:23:31.749Z,3.10
2022-08-05T15:27:15.713Z,2.55
2022-08-05T15:31:03.661Z,2.83
2022-08-05T15:34:49.879Z,2.70
2022-08-05T15:38:40.779Z,2.55
2022-08-05T15:42:50.349Z,2.70
2022-08-05T15:46:27.104Z,2.90
2022-08-05T15:50:15.358Z,2.17
2022-08-05T15:53:58.968Z,2.45
2022-08-05T15:57:42.452Z,2.45
2022-08-05T16:01:29.459Z,3.22
2022-08-05T16:05:28.337Z,2.40
2022-08-05T16:09:14.565Z,2.28
2022-08-05T16:12:57.473Z,2.60
2022-08-05T16:16:40.379Z,2.42
2022-08-05T16:20:24.542Z,2.63
2022-08-05T16:24:07.745Z,2.63
2022-08-05T16:28:10.627Z,2.67
2022-08-05T16:31:56.671Z,3.28
2022-08-05T16:35:42.457Z,3.40
2022-08-05T16:40:04.841Z,3.15
2022-08-05T16:43:31.877Z,3.00
2022-08-05T16:47:28.631Z,3.00
2022-08-05T16:51:18.905Z,3.22
2022-08-05T16:55:04.314Z,3.03
2022-08-05T16:58:47.249Z,2.97
2022-08-05T17:02:30.109Z,3.47
2022-08-05T17:06:13.016Z,2.90
2022-08-05T17:10:00.862Z,3.40
2022-08-05T17:13:45.771Z,3.08
2022-08-05T17:18:02.306Z,3.60
2022-08-05T17:21:36.911Z,3.10
2022-08-05T17:25:33.503Z,2.88
2022-08-05T17:29:33.339Z,3.30
2022-08-05T17:33:23.119Z,3.45
2022-08-05T17:37:29.496Z,3.05
2022-08-05T17:41:22.948Z,3.25
2022-08-05T17:45:20.491Z,3.35
2022-08-05T17:49:04.329Z,3.20
2022-08-05T17:52:53.266Z,3.15
2022-08-05T17:56:38.948Z,3.40
2022-08-05T18:00:21.783Z,3.55
2022-08-05T18:04:13.602Z,3.47
2022-08-05T18:08:04.300Z,3.53
2022-08-05T18:11:52.408Z,3.40
2022-08-05T18:15:38.506Z,3.70
2022-08-05T18:19:22.843Z,4.07
2022-08-05T18:23:11.243Z,3.80
2022-08-05T18:26:56.544Z,3.90
2022-08-05T18:30:41.103Z,4.13
2022-08-05T18:34:23.858Z,3.95
2022-08-05T18:38:25.929Z,3.67
2022-08-05T18:42:11.503Z,3.80
2022-08-05T18:45:55.355Z,4.10
2022-08-05T18:49:58.227Z,3.90
2022-08-05T18:53:50.181Z,5.40
2022-08-05T18:57:43.359Z,4.22
2022-08-05T19:01:48.018Z,4.28
2022-08-05T19:06:12.512Z,4.18
2022-08-05T19:09:41.304Z,4.07
2022-08-05T19:13:29.251Z,3.92
2022-08-05T19:17:12.960Z,3.58
2022-08-05T19:20:56.080Z,3.67
2022-08-05T19:24:39.231Z,3.60
2022-08-05T19:28:41.824Z,3.45
2022-08-05T19:32:26.140Z,3.88
2022-08-05T19:36:10.795Z,4.80
2022-08-05T19:39:58.192Z,3.88
2022-08-05T19:44:05.346Z,4.65
2022-08-05T19:47:45.573Z,5.43
2022-08-05T19:52:06.062Z,4.80
2022-08-05T19:56:12.446Z,5.45
2022-08-05T19:59:56.406Z,4.85
2022-08-05T20:03:41.215Z,5.75
2022-08-05T20:07:46.345Z,5.05
2022-08-05T20:11:28.095Z,5.32
2022-08-05T20:15:12.690Z,5.25
2022-08-05T20:18:59.033Z,5.32
2022-08-05T20:22:44.224Z,5.38
2022-08-05T20:26:29.731Z,5.25
2022-08-05T20:30:14.538Z,5.07
2022-08-05T20:34:01.050Z,5.72
2022-08-05T20:38:05.637Z,5.68
2022-08-05T20:41:48.176Z,5.93
2022-08-05T20:45:56.690Z,6.50
2022-08-05T20:49:39.342Z,5.55
2022-08-05T20:53:36.494Z,5.78
2022-08-05T20:57:42.096Z,4.30
2022-08-05T21:01:37.477Z,3.97
2022-08-05T21:05:22.085Z,4.18
2022-08-05T21:09:05.920Z,4.70
2022-08-05T21:12:57.953Z,4.75
2022-08-05T21:16:53.378Z,4.63
2022-08-05T21:20:36.329Z,4.55
2022-08-05T21:24:19.546Z,4.60
2022-08-05T21:28:03.377Z,4.45
2022-08-05T21:31:46.279Z,4.40
2022-08-05T21:35:43.835Z,4.50
2022-08-05T21:39:40.386Z,3.70
2022-08-05T21:43:24.692Z,3.10
2022-08-05T21:47:32.724Z,3.88
2022-08-05T21:51:25.179Z,4.28
2022-08-05T21:55:15.035Z,6.30
2022-08-05T21:58:58.050Z,3.40
2022-08-05T22:02:42.493Z,3.70
2022-08-05T22:06:34.815Z,3.38
2022-08-05T22:10:26.561Z,3.25
2022-08-05T22:14:33.536Z,3.17
2022-08-05T22:18:15.179Z,3.63
2022-08-05T22:22:03.862Z,4.25
2022-08-05T22:26:10.334Z,4.13
2022-08-05T22:29:54.439Z,4.72
2022-08-05T22:33:57.387Z,4.45
2022-08-05T22:37:58.284Z,4.90
2022-08-05T22:42:10.875Z,4.55
2022-08-05T22:45:46.396Z,4.60
2022-08-05T22:50:19.892Z,4.90
2022-08-05T22:53:35.629Z,4.13
2022-08-05T22:57:18.858Z,4.57
2022-08-05T23:01:01.643Z,4.68
2022-08-05T23:04:52.080Z,4.50
2022-08-05T23:08:39.259Z,4.20
2022-08-05T23:12:24.457Z,4.78
2022-08-05T23:16:07.403Z,4.07
2022-08-05T23:19:56.203Z,3.58
2022-08-05T23:23:40.698Z,3.35
2022-08-05T23:27:24.046Z,3.50
2022-08-05T23:31:16.953Z,3.40
2022-08-05T23:35:00.519Z,3.00
2022-08-05T23:38:44.798Z,2.80
2022-08-05T23:42:29.230Z,2.60
2022-08-05T23:46:19.618Z,2.50
2022-08-05T23:50:09.560Z,2.75
2022-08-05T23:53:53.959Z,2.40
2022-08-05T23:57:44.021Z,2.45
